Time;durP1;ratioP1;P1;durP2;ratioP2;P2;SDS_P1;SDS_P2;PMS_P1;PMS_P2;Temp;Humidity;BMP_temperature;BMP_pressure;BME280_temperature;BME280_humidity;BME280_pressure;Samples;Min_cycle;Max_cycle;Signal;HPM_P1;HPM_P2
2022/01/14 00:00:07;;;;;;;6.60;3.60;;;-3276.50;74.30;;;;;;6297544;28;20245;-63
2022/01/14 00:03:08;;;;;;;5.07;3.83;;;-3276.50;74.40;;;;;;6309754;28;20256;-63
2022/01/14 00:06:10;;;;;;;6.67;3.80;;;-3276.50;74.20;;;;;;6331308;28;20191;-63
2022/01/14 00:09:12;;;;;;;6.10;3.83;;;-3276.40;74.40;;;;;;6330965;28;20217;-60
2022/01/14 00:12:23;;;;;;;5.40;4.40;;;-3276.40;74.50;;;;;;6340284;28;20184;-61
2022/01/14 00:15:26;;;;;;;5.97;4.37;;;-3276.30;74.50;;;;;;6340902;28;20188;-61
2022/01/14 00:18:27;;;;;;;6.53;4.17;;;-3276.20;74.70;;;;;;6325181;28;20270;-61
2022/01/14 00:34:01;;;;;;;7.73;4.63;;;-3276.20;75.40;;;;;;6292645;28;20214;-62
2022/01/14 00:37:03;;;;;;;5.53;4.40;;;-3276.20;75.30;;;;;;6309538;28;20281;-62
2022/01/14 00:40:04;;;;;;;6.30;4.43;;;-3276.20;75.20;;;;;;6297378;28;20176;-61
2022/01/14 00:43:05;;;;;;;9.43;5.43;;;-3276.20;75.30;;;;;;6322638;28;20202;-61
2022/01/14 00:46:07;;;;;;;5.87;4.07;;;-3276.20;75.50;;;;;;6305616;28;20207;-61
2022/01/14 00:49:09;;;;;;;5.40;3.40;;;-3276.20;75.80;;;;;;6315773;28;20254;-62
2022/01/14 00:52:09;;;;;;;4.13;2.73;;;-3276.20;76.30;;;;;;6322678;28;20198;-61
2022/01/14 00:55:14;;;;;;;5.93;3.47;;;-3276.30;76.50;;;;;;6305414;28;20177;-61
2022/01/14 01:01:34;;;;;;;6.83;3.73;;;-3276.30;76.40;;;;;;6322213;28;20189;-62
2022/01/14 01:04:38;;;;;;;5.37;3.70;;;-3276.30;76.20;;;;;;6324316;28;20198;-62
2022/01/14 01:07:45;;;;;;;6.70;3.57;;;-3276.20;76.60;;;;;;6336178;28;20225;-62
2022/01/14 01:10:49;;;;;;;8.20;3.23;;;-3276.20;76.60;;;;;;6334602;28;20229;-62
2022/01/14 01:13:59;;;;;;;7.77;3.33;;;-3276.20;77.10;;;;;;6329090;28;20670;-62
2022/01/14 01:17:00;;;;;;;7.53;3.43;;;-3276.20;77.00;;;;;;6311351;28;20222;-62
2022/01/14 01:20:10;;;;;;;6.17;3.17;;;-3276.30;77.40;;;;;;6315399;28;20195;-62
2022/01/14 01:23:10;;;;;;;5.97;3.23;;;-3276.40;77.30;;;;;;6305958;28;20189;-62
2022/01/14 01:26:43;;;;;;;6.07;3.47;;;-3276.50;77.20;;;;;;6313455;28;20197;-62
2022/01/14 01:29:50;;;;;;;5.47;3.30;;;-3276.50;76.70;;;;;;6335731;28;20227;-63
2022/01/14 01:32:50;;;;;;;5.63;3.00;;;-3276.60;76.60;;;;;;6321091;28;20188;-63
2022/01/14 01:35:51;;;;;;;5.77;3.47;;;-3276.50;76.60;;;;;;6276066;28;20191;-63
2022/01/14 01:38:52;;;;;;;4.93;2.97;;;-3276.60;76.50;;;;;;6309385;28;20186;-63
2022/01/14 01:42:00;;;;;;;4.33;2.93;;;-3276.60;76.30;;;;;;6309233;28;20206;-63
2022/01/14 01:45:01;;;;;;;3.93;2.70;;;-3276.60;76.30;;;;;;6329493;28;20192;-63
2022/01/14 01:48:02;;;;;;;7.17;2.60;;;-3276.60;76.30;;;;;;6300781;28;20203;-63
2022/01/14 01:51:04;;;;;;;5.30;3.00;;;-3276.60;76.30;;;;;;6334082;28;20187;-63
2022/01/14 01:54:05;;;;;;;4.23;2.73;;;-3276.50;76.50;;;;;;6333899;28;20183;-63
2022/01/14 01:57:06;;;;;;;6.07;2.53;;;-3276.50;76.20;;;;;;6280112;28;20242;-63
2022/01/14 02:00:08;;;;;;;5.23;2.90;;;-3276.50;76.40;;;;;;6325008;28;20227;-63
2022/01/14 02:03:16;;;;;;;6.37;3.60;;;-3276.40;76.80;;;;;;6325370;28;20208;-62
2022/01/14 02:06:19;;;;;;;4.20;2.87;;;-3276.40;77.00;;;;;;6291858;28;20245;-62
2022/01/14 02:09:20;;;;;;;4.63;2.70;;;-3276.40;77.00;;;;;;6342917;28;20295;-63
2022/01/14 02:12:21;;;;;;;7.10;2.80;;;-3276.50;77.10;;;;;;6308768;28;20192;-62
2022/01/14 02:15:45;;;;;;;5.00;3.13;;;-3276.40;77.00;;;;;;6332044;28;20195;-61
2022/01/14 02:22:13;;;;;;;3.53;2.70;;;-3276.50;77.10;;;;;;6330960;28;20318;-61
2022/01/14 02:25:15;;;;;;;6.20;2.57;;;-3276.30;77.20;;;;;;6301764;28;20235;-61
2022/01/14 02:28:18;;;;;;;3.17;2.40;;;-3276.30;77.30;;;;;;6349881;28;20195;-61
2022/01/14 02:31:19;;;;;;;6.23;2.60;;;-3276.30;77.30;;;;;;6349832;28;20184;-61
2022/01/14 02:34:21;;;;;;;6.80;2.37;;;-3276.20;77.50;;;;;;6316632;28;20204;-61
2022/01/14 02:37:23;;;;;;;6.27;2.70;;;-3276.20;77.60;;;;;;6332887;28;20180;-61
2022/01/14 02:40:24;;;;;;;5.70;2.43;;;-3276.20;77.40;;;;;;6324849;28;20238;-63
2022/01/14 02:43:26;;;;;;;2.73;2.40;;;-3276.20;78.10;;;;;;6308189;28;20222;-63
2022/01/14 02:46:27;;;;;;;4.30;2.77;;;-3276.30;78.70;;;;;;6324460;28;20185;-63
2022/01/14 02:49:30;;;;;;;5.30;2.73;;;-3276.30;78.60;;;;;;6306160;28;20212;-63
2022/01/14 02:55:54;;;;;;;4.20;2.57;;;-3276.40;78.30;;;;;;6297666;28;20196;-62
2022/01/14 02:58:57;;;;;;;4.13;2.30;;;-3276.40;78.00;;;;;;6336936;28;20202;-62
2022/01/14 03:02:01;;;;;;;4.40;2.53;;;-3276.40;77.90;;;;;;6328255;28;20206;-62
2022/01/14 03:05:03;;;;;;;2.73;2.30;;;-3276.40;78.00;;;;;;6341548;28;20184;-62
2022/01/14 03:08:04;;;;;;;4.53;2.70;;;-3276.40;78.00;;;;;;6341102;28;20541;-62
2022/01/14 03:11:12;;;;;;;3.87;2.13;;;-3276.40;78.00;;;;;;6307626;28;20188;-62
2022/01/14 03:14:21;;;;;;;4.80;2.27;;;-3276.40;77.90;;;;;;6340891;28;20212;-62
2022/01/14 03:17:22;;;;;;;3.43;2.33;;;-3276.30;77.90;;;;;;6339731;28;20197;-62
2022/01/14 03:23:50;;;;;;;4.40;2.60;;;-3276.20;78.00;;;;;;6292875;28;20284;-63
2022/01/14 03:26:52;;;;;;;4.33;2.83;;;-3276.30;77.20;;;;;;6333251;27;20284;-62
2022/01/14 03:29:53;;;;;;;4.63;2.77;;;-3276.20;77.60;;;;;;6305964;28;20220;-62
2022/01/14 03:32:54;;;;;;;2.70;2.30;;;-3276.10;77.80;;;;;;6323484;28;20188;-62
2022/01/14 03:35:54;;;;;;;4.20;2.40;;;-3276.10;77.90;;;;;;6298806;28;20200;-62
2022/01/14 03:38:55;;;;;;;4.83;2.37;;;-3276.00;78.20;;;;;;6290195;28;20180;-62
2022/01/14 03:41:56;;;;;;;2.60;1.90;;;-3276.10;78.60;;;;;;6327053;28;20203;-62
2022/01/14 03:44:57;;;;;;;5.27;2.40;;;-3276.00;78.90;;;;;;6292202;28;20202;-62
2022/01/14 03:47:58;;;;;;;2.83;1.93;;;-3276.00;79.00;;;;;;6305950;28;20255;-62
2022/01/14 03:50:59;;;;;;;2.77;2.27;;;-3276.00;79.30;;;;;;6317556;28;20248;-62
2022/01/14 03:53:59;;;;;;;5.43;2.43;;;-3276.00;79.40;;;;;;6348291;28;20198;-61
2022/01/14 03:57:00;;;;;;;4.70;2.50;;;-3276.00;79.40;;;;;;6323624;28;20196;-62
2022/01/14 04:00:02;;;;;;;5.37;2.80;;;-3276.00;79.60;;;;;;6278172;28;20194;-62
2022/01/14 04:03:05;;;;;;;3.70;2.37;;;-3276.10;79.80;;;;;;6296009;28;20190;-63
2022/01/14 04:06:06;;;;;;;3.37;2.47;;;-3276.10;79.80;;;;;;6298213;28;20196;-65
2022/01/14 04:09:07;;;;;;;4.03;2.70;;;-3276.20;79.70;;;;;;6348197;28;20229;-64
2022/01/14 04:12:15;;;;;;;3.27;2.60;;;-3276.20;79.20;;;;;;6327035;28;20210;-64
2022/01/14 04:18:37;;;;;;;5.73;2.67;;;-3276.10;79.50;;;;;;6316723;28;20255;-63
2022/01/14 04:21:38;;;;;;;9.27;3.63;;;-3276.10;79.70;;;;;;6318792;28;20242;-63
2022/01/14 04:24:39;;;;;;;3.27;2.97;;;-3276.00;79.60;;;;;;6326961;28;20200;-63
2022/01/14 04:27:40;;;;;;;4.40;2.60;;;-3276.00;79.60;;;;;;6277022;28;20194;-63
2022/01/14 04:30:40;;;;;;;3.87;2.63;;;-3275.90;79.70;;;;;;6316754;28;20230;-63
2022/01/14 04:33:42;;;;;;;4.07;2.83;;;-3275.90;79.80;;;;;;6308657;28;20192;-63
2022/01/14 04:36:43;;;;;;;4.10;2.70;;;-3275.90;80.20;;;;;;6324915;28;20194;-63
2022/01/14 04:39:44;;;;;;;7.07;2.77;;;-3275.90;80.20;;;;;;6295874;28;20199;-64
2022/01/14 04:42:45;;;;;;;4.97;3.37;;;-3275.90;80.10;;;;;;6331500;27;20204;-63
2022/01/14 04:48:56;;;;;;;3.43;2.63;;;-3275.80;80.70;;;;;;6328893;27;20217;-64
2022/01/14 04:51:57;;;;;;;6.50;3.00;;;-3275.90;80.70;;;;;;6309670;28;20199;-65
2022/01/14 04:54:58;;;;;;;3.00;2.63;;;-3275.80;80.70;;;;;;6311174;28;20265;-65
2022/01/14 04:57:59;;;;;;;6.13;3.40;;;-3275.90;80.60;;;;;;6294520;28;20283;-65
2022/01/14 05:01:00;;;;;;;3.37;2.70;;;-3275.80;80.80;;;;;;6335056;28;20188;-64
2022/01/14 05:04:01;;;;;;;3.77;2.90;;;-3275.90;81.70;;;;;;6333448;28;20202;-64
2022/01/14 05:07:03;;;;;;;3.30;2.20;;;-3276.00;82.10;;;;;;6318604;28;20634;-64
2022/01/14 05:13:06;;;;;;;6.03;2.87;;;-3276.20;82.30;;;;;;6317555;28;20245;-64
2022/01/14 05:16:07;;;;;;;2.83;2.20;;;-3276.20;81.90;;;;;;6351932;28;20176;-64
2022/01/14 05:19:08;;;;;;;3.30;1.93;;;-3276.30;81.20;;;;;;6326289;28;20200;-64
2022/01/14 05:22:09;;;;;;;3.63;1.50;;;-3276.20;80.90;;;;;;6326571;28;20248;-66
2022/01/14 05:25:13;;;;;;;2.33;1.50;;;-3276.20;80.60;;;;;;6317155;28;20247;-67
2022/01/14 05:28:15;;;;;;;2.97;1.73;;;-3276.20;80.90;;;;;;6334130;28;20279;-66
2022/01/14 05:31:15;;;;;;;4.50;1.70;;;-3276.20;80.90;;;;;;6325884;28;20192;-66
2022/01/14 05:34:17;;;;;;;3.43;2.33;;;-3276.20;81.30;;;;;;6317558;28;20216;-66
2022/01/14 05:37:18;;;;;;;4.17;2.40;;;-3276.20;81.00;;;;;;6335965;28;20299;-66
2022/01/14 05:40:20;;;;;;;2.40;2.03;;;-3276.20;81.10;;;;;;6312865;28;20192;-66
2022/01/14 05:43:21;;;;;;;3.53;2.40;;;-3276.20;81.30;;;;;;6357343;27;20217;-66
2022/01/14 05:46:22;;;;;;;5.90;2.23;;;-3276.20;81.20;;;;;;6306615;28;20184;-66
2022/01/14 05:49:23;;;;;;;3.30;2.20;;;-3276.20;81.00;;;;;;6304961;28;20302;-65
2022/01/14 05:52:24;;;;;;;4.47;2.13;;;-3276.10;81.00;;;;;;6318639;28;20188;-65
2022/01/14 05:55:25;;;;;;;6.00;2.83;;;-3276.10;81.10;;;;;;6320720;28;20272;-65
2022/01/14 05:58:26;;;;;;;5.60;2.37;;;-3276.10;80.90;;;;;;6320021;28;20188;-65
2022/01/14 06:01:26;;;;;;;5.77;2.97;;;-3276.10;81.20;;;;;;6331135;28;20194;-65
2022/01/14 06:04:27;;;;;;;4.50;2.37;;;-3276.10;81.60;;;;;;6308523;28;20243;-65
2022/01/14 06:07:28;;;;;;;3.57;2.10;;;-3276.20;81.80;;;;;;6309320;28;20188;-65
2022/01/14 06:10:29;;;;;;;5.10;2.20;;;-3276.20;82.10;;;;;;6332644;28;20211;-66
2022/01/14 06:13:30;;;;;;;5.63;2.90;;;-3276.20;82.20;;;;;;6268427;28;20198;-66
2022/01/14 06:16:31;;;;;;;4.40;2.17;;;-3276.20;82.10;;;;;;6293899;28;20199;-63
2022/01/14 06:19:31;;;;;;;4.37;2.23;;;-3276.20;82.20;;;;;;6314579;28;20196;-65
2022/01/14 06:22:32;;;;;;;6.77;3.70;;;-3276.40;81.20;;;;;;6303690;28;20235;-65
2022/01/14 06:25:33;;;;;;;5.20;2.93;;;-3276.20;80.80;;;;;;6317238;28;20224;-65
2022/01/14 06:28:34;;;;;;;6.10;3.10;;;-3276.00;81.00;;;;;;6324679;28;20275;-66
2022/01/14 06:31:35;;;;;;;6.30;3.40;;;-3276.00;80.80;;;;;;6327711;28;20184;-65
2022/01/14 06:34:36;;;;;;;3.77;2.70;;;-3276.00;81.30;;;;;;6342216;28;20310;-65
2022/01/14 06:37:37;;;;;;;5.40;2.73;;;-3276.00;81.40;;;;;;6291348;28;20184;-66
2022/01/14 06:40:38;;;;;;;4.00;2.70;;;-3276.00;81.90;;;;;;6336503;28;20207;-65
2022/01/14 06:43:39;;;;;;;4.77;3.30;;;-3276.00;82.50;;;;;;6299440;28;20204;-66
2022/01/14 06:46:40;;;;;;;3.30;2.40;;;-3276.00;83.10;;;;;;6329778;28;20199;-66
2022/01/14 06:49:41;;;;;;;8.97;3.23;;;-3276.10;82.90;;;;;;6340945;28;20215;-69
2022/01/14 06:52:42;;;;;;;5.53;2.90;;;-3276.10;82.40;;;;;;6324291;28;20189;-65
2022/01/14 06:55:43;;;;;;;5.23;3.03;;;-3276.20;81.90;;;;;;6311346;28;20200;-66
2022/01/14 06:58:45;;;;;;;7.13;3.13;;;-3276.20;81.90;;;;;;6290570;28;20552;-63
2022/01/14 07:01:45;;;;;;;5.57;3.27;;;-3276.20;82.30;;;;;;6341103;28;20192;-64
2022/01/14 07:04:46;;;;;;;5.30;2.70;;;-3276.20;82.60;;;;;;6323801;28;20199;-66
2022/01/14 07:07:47;;;;;;;3.67;2.47;;;-3276.30;82.70;;;;;;6331855;28;20179;-67
2022/01/14 07:10:48;;;;;;;5.93;2.70;;;-3276.30;82.50;;;;;;6331958;28;20303;-65
2022/01/14 07:13:49;;;;;;;4.77;2.53;;;-3276.30;81.90;;;;;;6307457;28;20188;-67
2022/01/14 07:16:50;;;;;;;7.40;3.13;;;-3276.20;81.70;;;;;;6320519;28;20236;-67
2022/01/14 07:19:54;;;;;;;4.23;2.60;;;-3276.20;81.70;;;;;;6278165;28;20647;-66
2022/01/14 07:22:55;;;;;;;4.90;2.83;;;-3276.20;81.90;;;;;;6333277;28;20201;-66
2022/01/14 07:25:56;;;;;;;5.77;2.60;;;-3276.30;82.00;;;;;;6337364;28;20556;-66
2022/01/14 07:28:57;;;;;;;7.40;3.20;;;-3276.30;82.20;;;;;;6326262;28;20222;-67
2022/01/14 07:31:58;;;;;;;5.30;3.83;;;-3276.20;82.00;;;;;;6345740;28;20218;-67
2022/01/14 07:34:59;;;;;;;6.37;3.27;;;-3276.30;81.50;;;;;;6337119;28;20218;-67
2022/01/14 07:38:00;;;;;;;3.83;2.90;;;-3276.20;81.50;;;;;;6285594;28;20191;-65
2022/01/14 07:41:01;;;;;;;3.77;2.87;;;-3276.30;81.80;;;;;;6330353;28;20192;-70
2022/01/14 07:44:03;;;;;;;4.93;2.67;;;-3276.30;82.80;;;;;;6337007;28;20593;-67
2022/01/14 07:47:05;;;;;;;5.50;2.80;;;-3276.50;83.00;;;;;;6327182;28;20271;-66
2022/01/14 07:50:06;;;;;;;9.30;3.47;;;-3276.60;83.30;;;;;;6306414;28;20341;-65
2022/01/14 07:53:07;;;;;;;5.43;3.80;;;-3276.60;83.30;;;;;;6309382;28;20262;-68
2022/01/14 07:56:11;;;;;;;6.83;3.40;;;-3276.70;83.20;;;;;;6308619;28;20282;-65
2022/01/14 07:59:14;;;;;;;7.23;3.87;;;0.00;83.40;;;;;;6307367;28;20180;-67
2022/01/14 08:02:15;;;;;;;5.17;3.33;;;0.10;83.50;;;;;;6305974;28;20199;-68
2022/01/14 08:05:16;;;;;;;6.60;3.10;;;0.20;83.40;;;;;;6323173;28;20200;-67
2022/01/14 08:08:17;;;;;;;4.93;3.40;;;0.20;83.10;;;;;;6321251;28;20199;-65
2022/01/14 08:11:18;;;;;;;5.20;3.50;;;0.30;82.70;;;;;;6305799;28;20199;-66
2022/01/14 08:14:19;;;;;;;4.80;3.23;;;0.40;82.10;;;;;;6284711;28;20200;-63
2022/01/14 08:17:21;;;;;;;7.30;3.37;;;0.40;82.10;;;;;;6300666;28;20229;-64
2022/01/14 08:20:22;;;;;;;6.23;3.50;;;0.40;82.00;;;;;;6325822;28;20243;-63
2022/01/14 08:23:23;;;;;;;6.70;3.10;;;0.50;81.50;;;;;;6336597;28;20203;-65
2022/01/14 08:26:24;;;;;;;4.17;3.73;;;0.60;81.30;;;;;;6329098;28;20204;-67
2022/01/14 08:29:28;;;;;;;4.67;3.53;;;0.50;81.30;;;;;;6331936;28;20285;-66
2022/01/14 08:32:28;;;;;;;5.23;3.00;;;0.60;81.30;;;;;;6339900;28;20192;-66
2022/01/14 08:35:30;;;;;;;4.77;3.17;;;0.60;81.70;;;;;;6296439;28;20249;-66
2022/01/14 08:38:30;;;;;;;5.27;3.93;;;0.70;82.00;;;;;;6336167;28;20184;-66
2022/01/14 08:41:31;;;;;;;3.77;2.97;;;0.80;82.10;;;;;;6315988;28;20242;-67
2022/01/14 08:44:32;;;;;;;3.83;2.83;;;0.90;82.10;;;;;;6301919;28;20185;-66
2022/01/14 08:47:33;;;;;;;8.80;3.47;;;1.00;81.70;;;;;;6334051;27;20199;-65
2022/01/14 08:50:37;;;;;;;5.63;4.03;;;1.10;81.60;;;;;;6330847;28;20317;-66
2022/01/14 08:53:38;;;;;;;6.10;3.37;;;1.20;81.20;;;;;;6303123;28;20204;-65
2022/01/14 08:56:39;;;;;;;5.17;3.10;;;1.30;80.80;;;;;;6296793;28;20650;-65
2022/01/14 08:59:41;;;;;;;7.43;4.40;;;1.40;80.50;;;;;;6290940;28;20200;-65
2022/01/14 09:02:41;;;;;;;7.37;3.87;;;1.50;80.20;;;;;;6331882;28;20215;-65
2022/01/14 09:05:42;;;;;;;5.70;3.80;;;1.60;79.80;;;;;;6327138;28;20203;-65
2022/01/14 09:08:43;;;;;;;6.27;4.27;;;1.60;80.00;;;;;;6299577;28;20650;-65
2022/01/14 09:11:44;;;;;;;5.40;3.87;;;1.80;79.90;;;;;;6310000;28;20196;-65
2022/01/14 09:14:45;;;;;;;9.17;4.87;;;1.80;79.70;;;;;;6293408;28;20201;-65
2022/01/14 09:17:46;;;;;;;4.90;3.40;;;1.90;79.90;;;;;;6309841;28;20196;-65
2022/01/14 09:20:47;;;;;;;7.70;4.23;;;2.00;79.80;;;;;;6352601;27;20239;-64
2022/01/14 09:23:54;;;;;;;5.03;3.60;;;2.10;79.50;;;;;;6309511;28;20177;-65
2022/01/14 09:26:55;;;;;;;5.13;3.27;;;2.30;79.20;;;;;;6307195;28;20200;-64
2022/01/14 09:29:57;;;;;;;5.97;2.70;;;2.40;78.70;;;;;;6292133;28;20215;-65
2022/01/14 09:32:58;;;;;;;5.60;3.87;;;2.50;78.40;;;;;;6293018;28;20185;-65
2022/01/14 09:35:58;;;;;;;4.87;3.87;;;2.60;78.10;;;;;;6304350;28;20357;-66
2022/01/14 09:38:59;;;;;;;6.37;4.17;;;2.70;77.60;;;;;;6327972;28;20196;-66
2022/01/14 09:42:01;;;;;;;7.20;4.03;;;2.80;77.40;;;;;;6326480;28;20260;-66
2022/01/14 09:45:02;;;;;;;6.53;4.03;;;2.90;77.20;;;;;;6328770;28;20188;-66
2022/01/14 09:48:04;;;;;;;7.13;4.00;;;2.90;77.40;;;;;;6332868;28;20198;-67
2022/01/14 09:51:05;;;;;;;4.47;3.57;;;3.10;77.40;;;;;;6326237;28;20248;-66
2022/01/14 09:54:06;;;;;;;8.67;5.30;;;3.30;77.20;;;;;;6291004;28;20202;-69
2022/01/14 09:57:10;;;;;;;9.50;5.30;;;3.60;76.80;;;;;;6329505;28;20285;-68
2022/01/14 10:00:12;;;;;;;6.10;3.77;;;4.00;75.30;;;;;;6323563;28;20200;-68
2022/01/14 10:03:21;;;;;;;6.60;4.43;;;4.20;74.40;;;;;;6359955;27;20198;-66
2022/01/14 10:06:40;;;;;;;8.03;4.80;;;4.30;74.00;;;;;;6348692;28;20184;-66
2022/01/14 10:09:43;;;;;;;8.70;5.73;;;4.40;73.70;;;;;;6339937;28;20212;-66
2022/01/14 10:12:44;;;;;;;6.97;4.40;;;4.50;73.00;;;;;;6324175;28;20188;-65
2022/01/14 10:15:50;;;;;;;8.53;4.77;;;4.50;72.40;;;;;;6334686;28;20238;-65
2022/01/14 10:18:51;;;;;;;12.23;5.63;;;4.60;72.20;;;;;;6346498;28;20220;-66
2022/01/14 10:21:53;;;;;;;8.60;4.60;;;4.70;71.90;;;;;;6324091;28;20253;-66
2022/01/14 10:24:55;;;;;;;9.17;4.43;;;4.80;71.10;;;;;;6323981;28;20199;-66
2022/01/14 10:27:56;;;;;;;11.87;6.27;;;4.90;70.70;;;;;;6339074;28;20195;-67
2022/01/14 10:30:57;;;;;;;10.17;6.67;;;5.20;69.70;;;;;;6324831;28;20264;-67
2022/01/14 10:34:13;;;;;;;11.07;7.80;;;5.30;68.50;;;;;;6313277;28;20203;-67
2022/01/14 10:37:16;;;;;;;10.10;6.73;;;5.40;68.40;;;;;;6342491;28;20182;-67
2022/01/14 10:40:23;;;;;;;12.90;7.03;;;5.50;68.10;;;;;;6346034;28;20206;-64
2022/01/14 10:43:35;;;;;;;11.90;7.47;;;5.60;68.10;;;;;;6349336;27;20192;-63
2022/01/14 10:46:35;;;;;;;11.47;7.63;;;5.70;67.50;;;;;;6316141;28;20306;-65
2022/01/14 10:49:40;;;;;;;13.33;7.67;;;5.80;66.80;;;;;;6324070;28;20211;-65
2022/01/14 10:52:40;;;;;;;10.33;7.20;;;5.80;66.50;;;;;;6314310;28;20195;-62
2022/01/14 10:55:50;;;;;;;9.53;6.63;;;6.00;66.20;;;;;;6333437;27;20191;-65
2022/01/14 10:58:56;;;;;;;10.90;6.73;;;6.10;66.20;;;;;;6309487;28;20235;-66
2022/01/14 11:01:57;;;;;;;14.90;7.40;;;6.10;66.60;;;;;;6341505;28;20192;-65
2022/01/14 11:05:11;;;;;;;11.27;7.10;;;6.30;66.00;;;;;;6289842;28;20210;-64
2022/01/14 11:08:11;;;;;;;11.80;6.87;;;6.30;65.90;;;;;;6324433;28;20218;-64
2022/01/14 11:11:16;;;;;;;11.47;6.97;;;6.50;65.50;;;;;;6323816;28;20223;-66
2022/01/14 11:14:17;;;;;;;13.80;7.17;;;6.80;65.10;;;;;;6323505;28;20189;-65
2022/01/14 11:17:18;;;;;;;15.97;8.37;;;6.90;63.80;;;;;;6315076;28;20270;-62
2022/01/14 11:20:26;;;;;;;11.93;7.57;;;7.00;63.60;;;;;;6282952;28;20261;-65
2022/01/14 11:23:26;;;;;;;13.13;7.63;;;7.20;63.70;;;;;;6324248;28;20185;-65
2022/01/14 11:26:34;;;;;;;15.90;8.07;;;7.30;63.90;;;;;;6325548;28;20206;-65
2022/01/14 11:29:47;;;;;;;12.93;8.20;;;7.40;62.40;;;;;;6328400;28;20204;-65
2022/01/14 11:32:52;;;;;;;17.33;9.07;;;7.60;62.40;;;;;;6326758;28;20196;-65
2022/01/14 11:35:58;;;;;;;17.13;9.27;;;7.70;61.00;;;;;;6323757;28;20289;-65
2022/01/14 11:39:20;;;;;;;15.80;8.43;;;7.90;60.50;;;;;;6305032;28;20190;-65
2022/01/14 11:42:37;;;;;;;12.03;8.37;;;8.00;60.50;;;;;;6349036;28;20611;-63
2022/01/14 11:45:47;;;;;;;17.77;9.20;;;8.10;60.10;;;;;;6302962;28;20221;-63
2022/01/14 11:48:50;;;;;;;16.27;10.17;;;8.20;59.40;;;;;;6306737;28;20299;-64
2022/01/14 11:52:00;;;;;;;18.77;9.60;;;8.40;58.10;;;;;;6323752;28;20203;-64
2022/01/14 11:55:01;;;;;;;13.37;9.53;;;8.60;57.30;;;;;;6291905;28;20181;-64
2022/01/14 11:58:04;;;;;;;13.27;9.43;;;8.70;57.00;;;;;;6306749;28;20188;-64
2022/01/14 12:01:04;;;;;;;12.80;9.03;;;8.90;56.90;;;;;;6321412;28;20307;-64
2022/01/14 12:04:05;;;;;;;14.70;8.87;;;8.90;56.50;;;;;;6289371;28;20227;-64
2022/01/14 12:07:06;;;;;;;17.33;9.67;;;9.00;56.20;;;;;;6329304;28;20234;-63
2022/01/14 12:10:10;;;;;;;14.37;9.13;;;9.20;56.40;;;;;;6302084;28;20325;-63
2022/01/14 12:13:20;;;;;;;16.57;9.40;;;9.30;55.30;;;;;;6306633;28;20598;-64
2022/01/14 12:19:38;;;;;;;13.67;8.33;;;9.70;54.20;;;;;;6323737;28;20234;-64
2022/01/14 12:22:40;;;;;;;16.97;9.27;;;9.80;53.70;;;;;;6307103;28;20236;-63
2022/01/14 12:25:44;;;;;;;11.73;8.57;;;10.00;53.50;;;;;;6296961;28;20200;-64
2022/01/14 12:29:06;;;;;;;19.03;8.50;;;10.10;53.60;;;;;;6344260;28;20194;-64
2022/01/14 12:32:09;;;;;;;17.13;9.03;;;10.30;53.10;;;;;;6296035;28;20203;-63
2022/01/14 12:35:12;;;;;;;19.43;9.57;;;10.60;51.60;;;;;;6335179;28;20264;-64
2022/01/14 12:38:14;;;;;;;15.17;8.83;;;10.80;50.80;;;;;;6339399;28;20242;-63
2022/01/14 12:41:23;;;;;;;13.13;9.03;;;11.00;52.00;;;;;;6330618;28;20200;-64
2022/01/14 12:44:25;;;;;;;15.63;8.00;;;11.10;51.60;;;;;;6310322;28;20193;-63
2022/01/14 12:47:31;;;;;;;14.00;8.00;;;11.30;51.40;;;;;;6288685;28;20249;-63
2022/01/14 12:50:32;;;;;;;12.07;7.77;;;11.50;49.60;;;;;;6319823;28;20242;-63
2022/01/14 12:53:34;;;;;;;16.77;9.50;;;11.60;49.10;;;;;;6322511;28;20200;-63
2022/01/14 12:56:36;;;;;;;16.17;9.13;;;11.70;48.80;;;;;;6308503;28;20189;-63
2022/01/14 12:59:42;;;;;;;16.60;10.07;;;11.80;48.60;;;;;;6293764;28;20283;-63
2022/01/14 13:02:42;;;;;;;16.60;9.27;;;12.00;48.40;;;;;;6326775;28;20196;-63
2022/01/14 13:05:43;;;;;;;18.37;9.47;;;12.20;47.60;;;;;;6301715;28;20212;-63
2022/01/14 13:08:53;;;;;;;17.53;9.87;;;12.30;47.80;;;;;;6351716;28;20215;-63
2022/01/14 13:12:03;;;;;;;15.17;8.53;;;12.40;46.90;;;;;;6335218;28;20184;-63
2022/01/14 13:15:05;;;;;;;16.17;8.90;;;12.50;47.20;;;;;;6311179;28;20326;-63
2022/01/14 13:18:13;;;;;;;12.40;8.93;;;12.60;47.30;;;;;;6307928;28;20196;-63
2022/01/14 13:21:14;;;;;;;16.80;8.83;;;12.80;45.90;;;;;;6334069;28;20240;-63
2022/01/14 13:24:23;;;;;;;12.90;7.97;;;13.00;45.40;;;;;;6335257;28;20236;-63
2022/01/14 13:27:30;;;;;;;14.93;8.57;;;13.20;46.00;;;;;;6318309;28;20185;-63
2022/01/14 13:30:37;;;;;;;14.77;7.40;;;13.30;45.90;;;;;;6352141;28;20680;-62
2022/01/14 13:33:38;;;;;;;14.10;8.10;;;13.40;45.80;;;;;;6342921;28;20196;-62
2022/01/14 13:36:39;;;;;;;14.70;7.87;;;13.60;44.80;;;;;;6285795;28;20192;-62
2022/01/14 13:39:40;;;;;;;12.63;7.17;;;13.80;44.10;;;;;;6333149;28;20210;-60
2022/01/14 13:42:47;;;;;;;11.07;6.73;;;14.10;45.10;;;;;;6297830;28;20283;-59
2022/01/14 13:45:52;;;;;;;13.90;6.37;;;14.30;45.10;;;;;;6337415;27;20326;-58
2022/01/14 13:48:53;;;;;;;8.67;6.07;;;15.00;43.80;;;;;;6309018;28;20329;-58
2022/01/14 13:52:12;;;;;;;10.80;6.33;;;16.30;40.70;;;;;;6308926;28;20200;-57
2022/01/14 13:55:26;;;;;;;10.93;6.50;;;17.90;37.20;;;;;;6332677;28;20211;-60
2022/01/14 13:58:28;;;;;;;13.43;7.13;;;19.40;35.30;;;;;;6311442;28;20213;-59
2022/01/14 14:01:30;;;;;;;10.27;5.67;;;20.80;32.30;;;;;;6292326;28;20196;-57
2022/01/14 14:04:35;;;;;;;5.87;4.23;;;20.40;32.40;;;;;;6308933;28;20237;-59
2022/01/14 14:07:48;;;;;;;4.67;3.87;;;20.20;31.30;;;;;;6341717;28;20200;-59
2022/01/14 14:18:10;;;;;;;9.97;5.00;;;21.90;29.50;;;;;;6320786;28;20211;-57
2022/01/14 14:21:15;;;;;;;11.60;5.37;;;21.30;30.00;;;;;;6338709;28;20277;-56
2022/01/14 14:24:16;;;;;;;7.73;4.70;;;20.70;30.60;;;;;;6318984;28;20199;-57
2022/01/14 14:27:18;;;;;;;7.97;6.23;;;20.00;31.70;;;;;;6331067;28;20234;-58
2022/01/14 14:30:19;;;;;;;9.87;6.47;;;19.50;32.80;;;;;;6310212;28;20222;-61
2022/01/14 14:33:21;;;;;;;9.47;5.20;;;19.40;33.70;;;;;;6306045;28;20188;-60
2022/01/14 14:36:26;;;;;;;7.07;4.27;;;19.80;32.80;;;;;;6346877;27;20219;-62
2022/01/14 14:39:27;;;;;;;10.10;5.13;;;19.70;32.70;;;;;;6314150;28;20271;-61
2022/01/14 14:42:28;;;;;;;12.97;5.17;;;20.80;31.80;;;;;;6326063;28;20200;-62
2022/01/14 14:45:29;;;;;;;9.07;4.30;;;21.30;30.70;;;;;;6325301;28;20231;-60
2022/01/14 14:48:30;;;;;;;6.63;4.60;;;21.80;29.70;;;;;;6320453;28;20191;-61
2022/01/14 14:51:31;;;;;;;10.77;5.73;;;21.80;29.30;;;;;;6329033;28;20248;-60
2022/01/14 14:54:32;;;;;;;8.53;5.30;;;21.00;29.60;;;;;;6298026;28;20192;-60
2022/01/14 14:57:33;;;;;;;10.23;5.30;;;20.60;31.20;;;;;;6333024;28;20187;-60
2022/01/14 15:00:34;;;;;;;6.43;4.07;;;20.00;31.40;;;;;;6305150;28;20203;-58
2022/01/14 15:03:39;;;;;;;12.37;6.47;;;19.20;31.90;;;;;;6306621;28;20186;-59
2022/01/14 15:06:40;;;;;;;10.27;6.27;;;18.50;33.30;;;;;;6300918;28;20232;-59
2022/01/14 15:09:41;;;;;;;10.90;5.67;;;17.70;34.70;;;;;;6290805;28;20212;-59
2022/01/14 15:12:42;;;;;;;10.33;5.53;;;16.60;36.70;;;;;;6317010;28;20276;-59
2022/01/14 15:18:44;;;;;;;10.10;5.37;;;14.60;40.90;;;;;;6317567;28;20342;-60
2022/01/14 15:21:45;;;;;;;6.20;5.07;;;14.00;42.20;;;;;;6314830;28;20235;-59
2022/01/14 15:24:46;;;;;;;11.40;5.53;;;13.40;43.50;;;;;;6273547;28;20213;-60
2022/01/14 15:27:47;;;;;;;9.33;5.20;;;12.90;45.00;;;;;;6268515;28;20185;-59
2022/01/14 15:30:48;;;;;;;11.47;4.73;;;12.40;45.70;;;;;;6280165;28;20241;-59
2022/01/14 15:33:48;;;;;;;8.17;4.90;;;12.00;46.40;;;;;;6285573;28;20191;-60
2022/01/14 15:36:50;;;;;;;9.57;4.23;;;11.70;47.80;;;;;;6289755;28;20280;-60
2022/01/14 15:39:51;;;;;;;7.97;3.97;;;11.30;49.00;;;;;;6278421;28;20189;-60
2022/01/14 15:42:52;;;;;;;4.20;3.23;;;11.00;49.40;;;;;;6270950;28;20201;-59
2022/01/14 15:45:53;;;;;;;6.63;4.93;;;10.90;49.20;;;;;;6259308;28;20205;-60
2022/01/14 15:48:54;;;;;;;5.07;4.23;;;10.70;50.40;;;;;;6268636;28;20201;-61
2022/01/14 15:51:55;;;;;;;10.77;6.23;;;10.50;51.10;;;;;;6276496;28;20189;-60
2022/01/14 15:54:58;;;;;;;6.50;5.03;;;10.30;51.90;;;;;;6267287;28;20242;-60
2022/01/14 15:57:59;;;;;;;6.87;5.03;;;10.10;52.60;;;;;;6274655;28;20221;-60
2022/01/14 16:01:01;;;;;;;11.37;6.70;;;9.90;52.60;;;;;;6269011;28;20188;-60
2022/01/14 16:04:05;;;;;;;10.03;6.70;;;9.80;53.50;;;;;;6280874;28;20200;-60
2022/01/14 16:07:06;;;;;;;7.87;4.73;;;9.60;54.20;;;;;;6264277;28;20194;-61
2022/01/14 16:10:07;;;;;;;6.47;4.83;;;9.50;55.90;;;;;;6276501;28;20225;-61
2022/01/14 16:13:10;;;;;;;9.53;5.90;;;9.40;55.00;;;;;;6260199;28;20196;-60
2022/01/14 16:16:11;;;;;;;6.47;4.37;;;9.20;55.50;;;;;;6261461;28;20198;-60
2022/01/14 16:19:15;;;;;;;9.00;4.90;;;9.10;55.50;;;;;;6270580;28;20201;-60
2022/01/14 16:22:16;;;;;;;10.57;5.17;;;8.90;55.80;;;;;;6283924;28;20236;-60